sensor_id;sensor_type;location;lat;lon;timestamp;P1;durP1;ratioP1;P2;durP2;ratioP2
74630;SDS011;63138;55.082;38.804;2023-03-23T00:00:11;5.07;;;3.35;;
74630;SDS011;63138;55.082;38.804;2023-03-23T00:05:31;4.47;;;3.28;;
74630;SDS011;63138;55.082;38.804;2023-03-23T00:07:57;4.77;;;2.80;;
74630;SDS011;63138;55.082;38.804;2023-03-23T00:10:27;4.35;;;2.97;;
74630;SDS011;63138;55.082;38.804;2023-03-23T00:12:59;6.75;;;3.50;;
74630;SDS011;63138;55.082;38.804;2023-03-23T00:15:28;3.88;;;2.78;;
74630;SDS011;63138;55.082;38.804;2023-03-23T00:17:59;6.57;;;3.47;;
74630;SDS011;63138;55.082;38.804;2023-03-23T00:20:30;5.30;;;3.17;;
74630;SDS011;63138;55.082;38.804;2023-03-23T00:23:05;5.80;;;3.45;;
74630;SDS011;63138;55.082;38.804;2023-03-23T00:25:32;4.68;;;3.10;;
74630;SDS011;63138;55.082;38.804;2023-03-23T00:28:24;4.45;;;3.03;;
74630;SDS011;63138;55.082;38.804;2023-03-23T00:30:56;3.23;;;2.30;;
74630;SDS011;63138;55.082;38.804;2023-03-23T00:33:27;3.78;;;2.53;;
74630;SDS011;63138;55.082;38.804;2023-03-23T00:35:55;3.92;;;2.95;;
74630;SDS011;63138;55.082;38.804;2023-03-23T00:38:22;3.65;;;2.33;;
74630;SDS011;63138;55.082;38.804;2023-03-23T00:40:49;3.45;;;2.53;;
74630;SDS011;63138;55.082;38.804;2023-03-23T00:43:16;4.47;;;2.80;;
74630;SDS011;63138;55.082;38.804;2023-03-23T00:45:45;3.85;;;2.65;;
74630;SDS011;63138;55.082;38.804;2023-03-23T00:48:27;4.32;;;3.00;;
74630;SDS011;63138;55.082;38.804;2023-03-23T00:50:55;4.85;;;2.70;;
74630;SDS011;63138;55.082;38.804;2023-03-23T00:53:22;5.13;;;3.30;;
74630;SDS011;63138;55.082;38.804;2023-03-23T00:55:48;3.80;;;2.60;;
74630;SDS011;63138;55.082;38.804;2023-03-23T00:58:15;4.53;;;2.55;;
74630;SDS011;63138;55.082;38.804;2023-03-23T01:00:41;3.70;;;2.65;;
74630;SDS011;63138;55.082;38.804;2023-03-23T01:03:09;3.78;;;2.45;;
74630;SDS011;63138;55.082;38.804;2023-03-23T01:05:44;4.72;;;2.90;;
74630;SDS011;63138;55.082;38.804;2023-03-23T01:08:17;5.33;;;2.67;;
74630;SDS011;63138;55.082;38.804;2023-03-23T01:10:45;3.47;;;2.42;;
74630;SDS011;63138;55.082;38.804;2023-03-23T01:13:15;4.07;;;2.60;;
74630;SDS011;63138;55.082;38.804;2023-03-23T01:15:41;3.38;;;2.40;;
74630;SDS011;63138;55.082;38.804;2023-03-23T01:18:08;3.50;;;2.72;;
74630;SDS011;63138;55.082;38.804;2023-03-23T01:20:35;4.10;;;2.67;;
74630;SDS011;63138;55.082;38.804;2023-03-23T01:23:02;4.00;;;2.53;;
74630;SDS011;63138;55.082;38.804;2023-03-23T01:25:29;3.83;;;2.83;;
74630;SDS011;63138;55.082;38.804;2023-03-23T01:27:57;4.45;;;2.67;;
74630;SDS011;63138;55.082;38.804;2023-03-23T01:30:24;3.83;;;2.92;;
74630;SDS011;63138;55.082;38.804;2023-03-23T01:32:50;3.50;;;2.40;;
74630;SDS011;63138;55.082;38.804;2023-03-23T01:35:16;4.40;;;3.15;;
74630;SDS011;63138;55.082;38.804;2023-03-23T01:37:43;3.65;;;2.40;;
74630;SDS011;63138;55.082;38.804;2023-03-23T01:40:10;5.57;;;2.80;;
74630;SDS011;63138;55.082;38.804;2023-03-23T01:42:37;3.75;;;2.30;;
74630;SDS011;63138;55.082;38.804;2023-03-23T01:50:22;3.85;;;2.90;;
74630;SDS011;63138;55.082;38.804;2023-03-23T01:52:53;5.07;;;2.90;;
74630;SDS011;63138;55.082;38.804;2023-03-23T01:55:22;5.22;;;3.03;;
74630;SDS011;63138;55.082;38.804;2023-03-23T01:57:52;3.97;;;2.90;;
74630;SDS011;63138;55.082;38.804;2023-03-23T02:00:21;4.53;;;3.00;;
74630;SDS011;63138;55.082;38.804;2023-03-23T02:02:53;4.72;;;3.03;;
74630;SDS011;63138;55.082;38.804;2023-03-23T02:08:00;3.42;;;2.35;;
74630;SDS011;63138;55.082;38.804;2023-03-23T02:10:33;5.10;;;2.93;;
74630;SDS011;63138;55.082;38.804;2023-03-23T02:13:01;6.07;;;3.10;;
74630;SDS011;63138;55.082;38.804;2023-03-23T02:15:33;4.65;;;2.97;;
74630;SDS011;63138;55.082;38.804;2023-03-23T02:18:30;5.63;;;3.50;;
74630;SDS011;63138;55.082;38.804;2023-03-23T02:26:24;4.72;;;3.60;;
74630;SDS011;63138;55.082;38.804;2023-03-23T02:29:15;4.55;;;2.95;;
74630;SDS011;63138;55.082;38.804;2023-03-23T02:32:04;5.15;;;4.05;;
74630;SDS011;63138;55.082;38.804;2023-03-23T02:34:45;5.68;;;2.80;;
74630;SDS011;63138;55.082;38.804;2023-03-23T02:37:43;5.73;;;4.00;;
74630;SDS011;63138;55.082;38.804;2023-03-23T02:40:16;4.30;;;2.60;;
74630;SDS011;63138;55.082;38.804;2023-03-23T02:42:47;3.75;;;3.03;;
74630;SDS011;63138;55.082;38.804;2023-03-23T02:45:17;4.43;;;2.83;;
74630;SDS011;63138;55.082;38.804;2023-03-23T02:48:15;5.22;;;3.30;;
74630;SDS011;63138;55.082;38.804;2023-03-23T02:50:47;4.20;;;3.00;;
74630;SDS011;63138;55.082;38.804;2023-03-23T02:53:18;5.50;;;3.22;;
74630;SDS011;63138;55.082;38.804;2023-03-23T02:55:50;5.47;;;3.20;;
74630;SDS011;63138;55.082;38.804;2023-03-23T02:58:21;4.75;;;3.80;;
74630;SDS011;63138;55.082;38.804;2023-03-23T03:00:48;4.97;;;3.55;;
74630;SDS011;63138;55.082;38.804;2023-03-23T03:03:16;5.53;;;3.87;;
74630;SDS011;63138;55.082;38.804;2023-03-23T03:08:50;7.30;;;4.07;;
74630;SDS011;63138;55.082;38.804;2023-03-23T03:11:25;6.03;;;3.13;;
74630;SDS011;63138;55.082;38.804;2023-03-23T03:16:56;6.50;;;4.07;;
74630;SDS011;63138;55.082;38.804;2023-03-23T03:19:29;8.13;;;4.47;;
74630;SDS011;63138;55.082;38.804;2023-03-23T03:22:01;6.70;;;4.75;;
74630;SDS011;63138;55.082;38.804;2023-03-23T03:24:46;6.72;;;4.85;;
74630;SDS011;63138;55.082;38.804;2023-03-23T03:27:16;8.05;;;4.43;;
74630;SDS011;63138;55.082;38.804;2023-03-23T03:29:48;9.47;;;4.00;;
74630;SDS011;63138;55.082;38.804;2023-03-23T03:32:21;7.78;;;4.25;;
74630;SDS011;63138;55.082;38.804;2023-03-23T03:34:50;5.95;;;4.13;;
74630;SDS011;63138;55.082;38.804;2023-03-23T03:37:18;7.80;;;4.30;;
74630;SDS011;63138;55.082;38.804;2023-03-23T03:39:47;8.90;;;4.25;;
74630;SDS011;63138;55.082;38.804;2023-03-23T03:42:14;9.90;;;4.50;;
74630;SDS011;63138;55.082;38.804;2023-03-23T03:44:40;7.40;;;4.40;;
74630;SDS011;63138;55.082;38.804;2023-03-23T03:47:06;8.13;;;5.00;;
74630;SDS011;63138;55.082;38.804;2023-03-23T03:49:32;8.32;;;4.38;;
74630;SDS011;63138;55.082;38.804;2023-03-23T03:52:03;7.55;;;4.38;;
74630;SDS011;63138;55.082;38.804;2023-03-23T03:54:36;6.50;;;4.00;;
74630;SDS011;63138;55.082;38.804;2023-03-23T03:57:02;5.15;;;3.38;;
74630;SDS011;63138;55.082;38.804;2023-03-23T03:59:49;8.15;;;4.63;;
74630;SDS011;63138;55.082;38.804;2023-03-23T04:02:18;8.70;;;4.65;;
74630;SDS011;63138;55.082;38.804;2023-03-23T04:04:47;9.40;;;4.53;;
74630;SDS011;63138;55.082;38.804;2023-03-23T04:07:14;8.57;;;4.80;;
74630;SDS011;63138;55.082;38.804;2023-03-23T04:09:45;8.48;;;5.22;;
74630;SDS011;63138;55.082;38.804;2023-03-23T04:12:20;9.90;;;5.43;;
74630;SDS011;63138;55.082;38.804;2023-03-23T04:14:57;9.70;;;5.75;;
74630;SDS011;63138;55.082;38.804;2023-03-23T04:17:33;9.40;;;5.80;;
74630;SDS011;63138;55.082;38.804;2023-03-23T04:20:01;8.53;;;5.50;;
74630;SDS011;63138;55.082;38.804;2023-03-23T04:22:38;11.40;;;5.53;;
74630;SDS011;63138;55.082;38.804;2023-03-23T04:25:04;7.25;;;4.78;;
74630;SDS011;63138;55.082;38.804;2023-03-23T04:27:34;8.70;;;5.30;;
74630;SDS011;63138;55.082;38.804;2023-03-23T04:30:04;7.07;;;5.57;;
74630;SDS011;63138;55.082;38.804;2023-03-23T04:32:42;8.45;;;5.28;;
74630;SDS011;63138;55.082;38.804;2023-03-23T04:35:32;10.15;;;6.00;;
74630;SDS011;63138;55.082;38.804;2023-03-23T04:38:25;8.48;;;5.93;;
74630;SDS011;63138;55.082;38.804;2023-03-23T04:41:11;11.30;;;6.10;;
74630;SDS011;63138;55.082;38.804;2023-03-23T04:43:56;12.37;;;7.27;;
74630;SDS011;63138;55.082;38.804;2023-03-23T04:49:23;10.75;;;6.03;;
74630;SDS011;63138;55.082;38.804;2023-03-23T04:51:58;11.40;;;6.97;;
74630;SDS011;63138;55.082;38.804;2023-03-23T04:54:38;12.90;;;7.03;;
74630;SDS011;63138;55.082;38.804;2023-03-23T04:57:05;10.13;;;5.80;;
74630;SDS011;63138;55.082;38.804;2023-03-23T04:59:34;10.75;;;6.53;;
74630;SDS011;63138;55.082;38.804;2023-03-23T05:02:11;16.38;;;8.18;;
74630;SDS011;63138;55.082;38.804;2023-03-23T05:04:39;13.40;;;7.10;;
74630;SDS011;63138;55.082;38.804;2023-03-23T05:07:19;11.00;;;7.50;;
74630;SDS011;63138;55.082;38.804;2023-03-23T05:09:47;8.37;;;5.50;;
74630;SDS011;63138;55.082;38.804;2023-03-23T05:12:16;9.80;;;5.72;;
74630;SDS011;63138;55.082;38.804;2023-03-23T05:14:51;10.68;;;7.35;;
74630;SDS011;63138;55.082;38.804;2023-03-23T05:17:19;11.02;;;6.88;;
74630;SDS011;63138;55.082;38.804;2023-03-23T05:19:49;13.52;;;7.93;;
74630;SDS011;63138;55.082;38.804;2023-03-23T05:22:36;12.80;;;7.67;;
74630;SDS011;63138;55.082;38.804;2023-03-23T05:25:05;10.43;;;6.88;;
74630;SDS011;63138;55.082;38.804;2023-03-23T05:27:37;12.98;;;7.20;;
74630;SDS011;63138;55.082;38.804;2023-03-23T05:30:17;13.70;;;7.85;;
74630;SDS011;63138;55.082;38.804;2023-03-23T05:32:43;11.63;;;8.00;;
74630;SDS011;63138;55.082;38.804;2023-03-23T05:35:39;10.93;;;7.83;;
74630;SDS011;63138;55.082;38.804;2023-03-23T05:38:06;16.88;;;9.20;;
74630;SDS011;63138;55.082;38.804;2023-03-23T05:40:32;13.25;;;7.80;;
74630;SDS011;63138;55.082;38.804;2023-03-23T05:43:11;10.60;;;6.82;;
74630;SDS011;63138;55.082;38.804;2023-03-23T05:48:58;12.00;;;7.53;;
74630;SDS011;63138;55.082;38.804;2023-03-23T05:51:31;10.43;;;7.32;;
74630;SDS011;63138;55.082;38.804;2023-03-23T05:53:57;15.15;;;7.63;;
74630;SDS011;63138;55.082;38.804;2023-03-23T05:56:23;9.13;;;6.97;;
74630;SDS011;63138;55.082;38.804;2023-03-23T05:59:19;10.63;;;6.40;;
74630;SDS011;63138;55.082;38.804;2023-03-23T06:01:48;11.25;;;7.50;;
74630;SDS011;63138;55.082;38.804;2023-03-23T06:04:18;13.60;;;7.10;;
74630;SDS011;63138;55.082;38.804;2023-03-23T06:07:01;12.63;;;7.28;;
74630;SDS011;63138;55.082;38.804;2023-03-23T06:09:28;11.00;;;8.17;;
74630;SDS011;63138;55.082;38.804;2023-03-23T06:12:17;12.70;;;8.90;;
74630;SDS011;63138;55.082;38.804;2023-03-23T06:15:05;9.95;;;8.55;;
74630;SDS011;63138;55.082;38.804;2023-03-23T06:17:53;9.65;;;7.45;;
74630;SDS011;63138;55.082;38.804;2023-03-23T06:20:24;10.15;;;7.32;;
74630;SDS011;63138;55.082;38.804;2023-03-23T06:22:52;10.97;;;8.47;;
74630;SDS011;63138;55.082;38.804;2023-03-23T06:25:42;10.07;;;8.35;;
74630;SDS011;63138;55.082;38.804;2023-03-23T06:28:11;9.05;;;7.53;;
74630;SDS011;63138;55.082;38.804;2023-03-23T06:30:41;9.45;;;7.28;;
74630;SDS011;63138;55.082;38.804;2023-03-23T06:33:09;9.10;;;8.02;;
74630;SDS011;63138;55.082;38.804;2023-03-23T06:36:02;11.13;;;8.37;;
74630;SDS011;63138;55.082;38.804;2023-03-23T06:38:40;10.70;;;8.68;;
74630;SDS011;63138;55.082;38.804;2023-03-23T06:41:07;17.05;;;12.93;;
74630;SDS011;63138;55.082;38.804;2023-03-23T06:43:34;16.55;;;12.80;;
74630;SDS011;63138;55.082;38.804;2023-03-23T06:46:10;15.48;;;12.43;;
74630;SDS011;63138;55.082;38.804;2023-03-23T06:48:40;14.17;;;12.13;;
74630;SDS011;63138;55.082;38.804;2023-03-23T06:51:08;13.73;;;10.75;;
74630;SDS011;63138;55.082;38.804;2023-03-23T06:53:37;13.20;;;10.75;;
74630;SDS011;63138;55.082;38.804;2023-03-23T06:56:07;13.73;;;10.63;;
74630;SDS011;63138;55.082;38.804;2023-03-23T06:58:34;14.25;;;10.82;;
74630;SDS011;63138;55.082;38.804;2023-03-23T07:01:00;12.93;;;10.63;;
74630;SDS011;63138;55.082;38.804;2023-03-23T07:03:36;14.80;;;10.55;;
74630;SDS011;63138;55.082;38.804;2023-03-23T07:06:03;14.57;;;11.60;;
74630;SDS011;63138;55.082;38.804;2023-03-23T07:08:35;15.75;;;11.75;;
74630;SDS011;63138;55.082;38.804;2023-03-23T07:11:03;14.35;;;12.32;;
74630;SDS011;63138;55.082;38.804;2023-03-23T07:13:30;18.90;;;12.73;;
74630;SDS011;63138;55.082;38.804;2023-03-23T07:15:59;16.45;;;12.02;;
74630;SDS011;63138;55.082;38.804;2023-03-23T07:18:26;16.25;;;12.73;;
74630;SDS011;63138;55.082;38.804;2023-03-23T07:20:54;15.25;;;12.30;;
74630;SDS011;63138;55.082;38.804;2023-03-23T07:23:28;12.25;;;10.05;;
74630;SDS011;63138;55.082;38.804;2023-03-23T07:26:04;12.17;;;10.20;;
74630;SDS011;63138;55.082;38.804;2023-03-23T07:28:36;12.98;;;11.55;;
74630;SDS011;63138;55.082;38.804;2023-03-23T07:31:29;12.38;;;10.63;;
74630;SDS011;63138;55.082;38.804;2023-03-23T07:33:57;12.15;;;10.85;;
74630;SDS011;63138;55.082;38.804;2023-03-23T07:36:29;16.55;;;11.05;;
74630;SDS011;63138;55.082;38.804;2023-03-23T07:38:55;13.73;;;10.20;;
74630;SDS011;63138;55.082;38.804;2023-03-23T07:41:22;18.20;;;13.07;;
74630;SDS011;63138;55.082;38.804;2023-03-23T07:43:53;13.65;;;11.60;;
74630;SDS011;63138;55.082;38.804;2023-03-23T07:46:44;14.57;;;10.40;;
74630;SDS011;63138;55.082;38.804;2023-03-23T07:49:15;12.85;;;11.50;;
74630;SDS011;63138;55.082;38.804;2023-03-23T07:51:46;15.23;;;11.10;;
74630;SDS011;63138;55.082;38.804;2023-03-23T07:54:13;15.55;;;10.63;;
74630;SDS011;63138;55.082;38.804;2023-03-23T07:57:01;15.10;;;11.30;;
74630;SDS011;63138;55.082;38.804;2023-03-23T07:59:35;14.73;;;12.02;;
74630;SDS011;63138;55.082;38.804;2023-03-23T08:02:03;13.18;;;10.02;;
74630;SDS011;63138;55.082;38.804;2023-03-23T08:04:32;14.77;;;11.03;;
74630;SDS011;63138;55.082;38.804;2023-03-23T08:07:26;14.50;;;10.77;;
74630;SDS011;63138;55.082;38.804;2023-03-23T08:10:15;16.45;;;12.23;;
74630;SDS011;63138;55.082;38.804;2023-03-23T08:13:06;16.63;;;12.60;;
74630;SDS011;63138;55.082;38.804;2023-03-23T08:16:08;15.70;;;12.07;;
74630;SDS011;63138;55.082;38.804;2023-03-23T08:18:56;17.60;;;14.50;;
74630;SDS011;63138;55.082;38.804;2023-03-23T08:21:52;18.70;;;13.45;;
74630;SDS011;63138;55.082;38.804;2023-03-23T08:24:42;18.20;;;12.35;;
74630;SDS011;63138;55.082;38.804;2023-03-23T08:27:33;18.02;;;13.93;;
74630;SDS011;63138;55.082;38.804;2023-03-23T08:30:13;18.13;;;14.02;;
74630;SDS011;63138;55.082;38.804;2023-03-23T08:33:10;17.37;;;12.67;;
74630;SDS011;63138;55.082;38.804;2023-03-23T08:35:55;15.55;;;12.40;;
74630;SDS011;63138;55.082;38.804;2023-03-23T08:38:49;17.25;;;12.38;;
74630;SDS011;63138;55.082;38.804;2023-03-23T08:41:47;25.75;;;17.80;;
74630;SDS011;63138;55.082;38.804;2023-03-23T08:44:56;33.05;;;22.40;;
74630;SDS011;63138;55.082;38.804;2023-03-23T08:47:41;26.17;;;20.37;;
74630;SDS011;63138;55.082;38.804;2023-03-23T08:50:27;23.02;;;15.15;;
74630;SDS011;63138;55.082;38.804;2023-03-23T08:52:59;21.60;;;16.73;;
74630;SDS011;63138;55.082;38.804;2023-03-23T08:55:44;16.25;;;12.50;;
74630;SDS011;63138;55.082;38.804;2023-03-23T08:58:27;19.00;;;13.98;;
74630;SDS011;63138;55.082;38.804;2023-03-23T09:01:03;12.30;;;9.33;;
74630;SDS011;63138;55.082;38.804;2023-03-23T09:03:43;16.42;;;12.65;;
74630;SDS011;63138;55.082;38.804;2023-03-23T09:06:34;17.10;;;13.25;;
74630;SDS011;63138;55.082;38.804;2023-03-23T09:09:02;14.55;;;10.38;;
74630;SDS011;63138;55.082;38.804;2023-03-23T09:11:35;19.73;;;13.30;;
74630;SDS011;63138;55.082;38.804;2023-03-23T09:14:03;16.87;;;11.27;;
74630;SDS011;63138;55.082;38.804;2023-03-23T09:16:30;14.80;;;10.60;;
74630;SDS011;63138;55.082;38.804;2023-03-23T09:18:57;15.77;;;12.00;;
74630;SDS011;63138;55.082;38.804;2023-03-23T09:21:25;14.98;;;10.93;;
74630;SDS011;63138;55.082;38.804;2023-03-23T09:23:52;14.63;;;11.35;;
74630;SDS011;63138;55.082;38.804;2023-03-23T09:26:23;19.77;;;12.97;;
74630;SDS011;63138;55.082;38.804;2023-03-23T09:28:53;15.88;;;10.75;;
74630;SDS011;63138;55.082;38.804;2023-03-23T09:31:21;18.50;;;13.50;;
74630;SDS011;63138;55.082;38.804;2023-03-23T09:33:49;16.20;;;11.70;;
74630;SDS011;63138;55.082;38.804;2023-03-23T09:36:18;14.82;;;11.18;;
74630;SDS011;63138;55.082;38.804;2023-03-23T09:38:48;16.43;;;10.63;;
74630;SDS011;63138;55.082;38.804;2023-03-23T09:44:27;14.93;;;11.75;;
74630;SDS011;63138;55.082;38.804;2023-03-23T09:50:14;13.60;;;10.63;;
74630;SDS011;63138;55.082;38.804;2023-03-23T09:56:03;13.98;;;10.98;;
74630;SDS011;63138;55.082;38.804;2023-03-23T09:58:39;15.95;;;11.18;;
74630;SDS011;63138;55.082;38.804;2023-03-23T10:01:31;15.00;;;10.52;;
74630;SDS011;63138;55.082;38.804;2023-03-23T10:04:28;15.85;;;11.15;;
74630;SDS011;63138;55.082;38.804;2023-03-23T10:07:13;14.07;;;9.90;;
74630;SDS011;63138;55.082;38.804;2023-03-23T10:09:43;16.17;;;11.45;;
74630;SDS011;63138;55.082;38.804;2023-03-23T10:17:33;14.70;;;10.95;;
74630;SDS011;63138;55.082;38.804;2023-03-23T10:22:45;17.70;;;12.15;;
74630;SDS011;63138;55.082;38.804;2023-03-23T10:25:19;16.13;;;11.45;;
74630;SDS011;63138;55.082;38.804;2023-03-23T10:27:58;18.52;;;12.50;;
74630;SDS011;63138;55.082;38.804;2023-03-23T10:30:33;16.60;;;11.75;;
74630;SDS011;63138;55.082;38.804;2023-03-23T10:35:56;17.30;;;12.07;;
74630;SDS011;63138;55.082;38.804;2023-03-23T10:38:25;19.83;;;12.77;;
74630;SDS011;63138;55.082;38.804;2023-03-23T10:40:57;23.25;;;15.05;;
74630;SDS011;63138;55.082;38.804;2023-03-23T10:43:27;25.42;;;13.40;;
74630;SDS011;63138;55.082;38.804;2023-03-23T10:45:56;17.47;;;11.90;;
74630;SDS011;63138;55.082;38.804;2023-03-23T10:48:29;16.05;;;10.38;;
74630;SDS011;63138;55.082;38.804;2023-03-23T10:51:00;16.52;;;11.02;;
74630;SDS011;63138;55.082;38.804;2023-03-23T10:53:32;15.77;;;11.50;;
74630;SDS011;63138;55.082;38.804;2023-03-23T10:56:03;14.50;;;10.43;;
74630;SDS011;63138;55.082;38.804;2023-03-23T10:58:31;16.30;;;10.50;;
74630;SDS011;63138;55.082;38.804;2023-03-23T11:01:32;12.60;;;9.13;;
74630;SDS011;63138;55.082;38.804;2023-03-23T11:04:02;15.05;;;10.93;;
74630;SDS011;63138;55.082;38.804;2023-03-23T11:06:30;17.30;;;12.45;;
74630;SDS011;63138;55.082;38.804;2023-03-23T11:09:11;15.27;;;11.20;;
74630;SDS011;63138;55.082;38.804;2023-03-23T11:11:40;17.93;;;11.23;;
74630;SDS011;63138;55.082;38.804;2023-03-23T11:14:42;15.57;;;10.60;;
74630;SDS011;63138;55.082;38.804;2023-03-23T11:17:18;16.80;;;10.43;;
74630;SDS011;63138;55.082;38.804;2023-03-23T11:19:47;11.38;;;8.38;;
74630;SDS011;63138;55.082;38.804;2023-03-23T11:22:27;17.15;;;11.40;;
74630;SDS011;63138;55.082;38.804;2023-03-23T11:24:59;15.93;;;11.50;;
74630;SDS011;63138;55.082;38.804;2023-03-23T11:27:28;17.67;;;11.18;;
74630;SDS011;63138;55.082;38.804;2023-03-23T11:29:56;13.13;;;9.75;;
74630;SDS011;63138;55.082;38.804;2023-03-23T11:32:50;14.70;;;9.98;;
74630;SDS011;63138;55.082;38.804;2023-03-23T11:35:22;16.02;;;10.35;;
74630;SDS011;63138;55.082;38.804;2023-03-23T11:40:22;16.42;;;10.90;;
74630;SDS011;63138;55.082;38.804;2023-03-23T11:43:01;16.30;;;11.07;;
74630;SDS011;63138;55.082;38.804;2023-03-23T11:45:48;19.20;;;11.18;;
74630;SDS011;63138;55.082;38.804;2023-03-23T11:51:12;17.20;;;11.00;;
74630;SDS011;63138;55.082;38.804;2023-03-23T11:53:45;16.70;;;10.68;;
74630;SDS011;63138;55.082;38.804;2023-03-23T11:58:53;16.58;;;10.77;;
74630;SDS011;63138;55.082;38.804;2023-03-23T12:23:04;16.55;;;11.73;;
74630;SDS011;63138;55.082;38.804;2023-03-23T12:31:47;13.73;;;10.27;;
74630;SDS011;63138;55.082;38.804;2023-03-23T12:42:43;17.50;;;11.13;;
74630;SDS011;63138;55.082;38.804;2023-03-23T12:48:48;14.68;;;9.80;;
74630;SDS011;63138;55.082;38.804;2023-03-23T12:51:21;17.48;;;10.18;;
74630;SDS011;63138;55.082;38.804;2023-03-23T12:56:51;17.55;;;9.50;;
74630;SDS011;63138;55.082;38.804;2023-03-23T12:59:43;14.20;;;9.43;;
74630;SDS011;63138;55.082;38.804;2023-03-23T13:02:18;17.25;;;10.43;;
74630;SDS011;63138;55.082;38.804;2023-03-23T13:05:24;11.68;;;9.02;;
74630;SDS011;63138;55.082;38.804;2023-03-23T13:07:59;17.27;;;10.63;;
74630;SDS011;63138;55.082;38.804;2023-03-23T13:10:39;16.10;;;11.30;;
74630;SDS011;63138;55.082;38.804;2023-03-23T13:13:13;17.63;;;9.87;;
74630;SDS011;63138;55.082;38.804;2023-03-23T13:21:10;14.57;;;10.05;;
74630;SDS011;63138;55.082;38.804;2023-03-23T13:26:18;20.60;;;13.87;;
74630;SDS011;63138;55.082;38.804;2023-03-23T13:29:19;19.88;;;11.85;;
74630;SDS011;63138;55.082;38.804;2023-03-23T13:31:49;21.38;;;13.02;;
74630;SDS011;63138;55.082;38.804;2023-03-23T13:39:30;18.90;;;12.27;;
74630;SDS011;63138;55.082;38.804;2023-03-23T13:42:19;19.52;;;12.48;;
74630;SDS011;63138;55.082;38.804;2023-03-23T13:45:55;22.27;;;13.02;;
74630;SDS011;63138;55.082;38.804;2023-03-23T13:50:49;16.23;;;9.35;;
74630;SDS011;63138;55.082;38.804;2023-03-23T13:53:24;24.50;;;12.33;;
74630;SDS011;63138;55.082;38.804;2023-03-23T13:56:36;16.05;;;10.10;;
74630;SDS011;63138;55.082;38.804;2023-03-23T13:59:12;17.48;;;11.27;;
74630;SDS011;63138;55.082;38.804;2023-03-23T14:01:41;15.95;;;10.30;;
74630;SDS011;63138;55.082;38.804;2023-03-23T14:04:13;13.90;;;9.88;;
74630;SDS011;63138;55.082;38.804;2023-03-23T14:06:41;17.20;;;9.00;;
74630;SDS011;63138;55.082;38.804;2023-03-23T14:09:36;14.00;;;9.02;;
74630;SDS011;63138;55.082;38.804;2023-03-23T14:12:13;18.50;;;9.82;;
74630;SDS011;63138;55.082;38.804;2023-03-23T14:14:47;16.30;;;9.07;;
74630;SDS011;63138;55.082;38.804;2023-03-23T14:19:42;13.97;;;8.43;;
74630;SDS011;63138;55.082;38.804;2023-03-23T14:22:19;13.77;;;7.50;;
74630;SDS011;63138;55.082;38.804;2023-03-23T14:24:49;13.13;;;7.00;;
74630;SDS011;63138;55.082;38.804;2023-03-23T14:27:17;8.90;;;6.30;;
74630;SDS011;63138;55.082;38.804;2023-03-23T14:29:45;8.35;;;5.05;;
74630;SDS011;63138;55.082;38.804;2023-03-23T14:33:05;10.90;;;5.75;;
74630;SDS011;63138;55.082;38.804;2023-03-23T14:35:34;7.00;;;4.68;;
74630;SDS011;63138;55.082;38.804;2023-03-23T14:38:01;10.05;;;6.13;;
74630;SDS011;63138;55.082;38.804;2023-03-23T14:40:29;10.30;;;5.70;;
74630;SDS011;63138;55.082;38.804;2023-03-23T14:42:56;10.75;;;7.35;;
74630;SDS011;63138;55.082;38.804;2023-03-23T14:45:23;11.48;;;7.72;;
74630;SDS011;63138;55.082;38.804;2023-03-23T14:47:51;16.38;;;7.82;;
74630;SDS011;63138;55.082;38.804;2023-03-23T14:53:12;9.90;;;6.20;;
74630;SDS011;63138;55.082;38.804;2023-03-23T14:56:00;11.05;;;5.47;;
74630;SDS011;63138;55.082;38.804;2023-03-23T14:58:30;8.93;;;6.00;;
74630;SDS011;63138;55.082;38.804;2023-03-23T15:01:01;8.23;;;5.15;;
74630;SDS011;63138;55.082;38.804;2023-03-23T15:03:30;9.48;;;5.70;;
74630;SDS011;63138;55.082;38.804;2023-03-23T15:06:05;10.57;;;6.63;;
74630;SDS011;63138;55.082;38.804;2023-03-23T15:08:35;12.20;;;7.28;;
74630;SDS011;63138;55.082;38.804;2023-03-23T15:11:24;13.65;;;7.90;;
74630;SDS011;63138;55.082;38.804;2023-03-23T15:13:54;10.00;;;6.72;;
74630;SDS011;63138;55.082;38.804;2023-03-23T15:16:32;10.60;;;6.50;;
74630;SDS011;63138;55.082;38.804;2023-03-23T15:19:00;12.70;;;6.00;;
74630;SDS011;63138;55.082;38.804;2023-03-23T15:21:36;9.50;;;5.03;;
74630;SDS011;63138;55.082;38.804;2023-03-23T15:24:21;6.95;;;5.07;;
74630;SDS011;63138;55.082;38.804;2023-03-23T15:30:14;11.32;;;6.95;;
74630;SDS011;63138;55.082;38.804;2023-03-23T15:32:54;10.67;;;7.03;;
74630;SDS011;63138;55.082;38.804;2023-03-23T15:35:53;9.00;;;5.97;;
74630;SDS011;63138;55.082;38.804;2023-03-23T15:41:24;9.90;;;5.53;;
74630;SDS011;63138;55.082;38.804;2023-03-23T15:43:56;8.02;;;5.38;;
74630;SDS011;63138;55.082;38.804;2023-03-23T15:46:24;9.60;;;6.60;;
74630;SDS011;63138;55.082;38.804;2023-03-23T15:51:28;10.65;;;5.95;;
74630;SDS011;63138;55.082;38.804;2023-03-23T15:53:56;7.55;;;6.43;;
74630;SDS011;63138;55.082;38.804;2023-03-23T15:56:23;13.02;;;7.18;;
74630;SDS011;63138;55.082;38.804;2023-03-23T15:58:51;7.83;;;5.37;;
74630;SDS011;63138;55.082;38.804;2023-03-23T16:01:19;10.43;;;7.43;;
74630;SDS011;63138;55.082;38.804;2023-03-23T16:06:14;9.48;;;6.72;;
74630;SDS011;63138;55.082;38.804;2023-03-23T16:08:42;9.33;;;5.63;;
74630;SDS011;63138;55.082;38.804;2023-03-23T16:11:12;9.45;;;7.07;;
74630;SDS011;63138;55.082;38.804;2023-03-23T16:13:40;8.68;;;6.00;;
74630;SDS011;63138;55.082;38.804;2023-03-23T16:16:10;10.60;;;7.72;;
74630;SDS011;63138;55.082;38.804;2023-03-23T16:18:41;10.75;;;7.05;;
74630;SDS011;63138;55.082;38.804;2023-03-23T16:21:08;9.60;;;7.13;;
74630;SDS011;63138;55.082;38.804;2023-03-23T16:23:34;12.25;;;8.05;;
74630;SDS011;63138;55.082;38.804;2023-03-23T16:26:00;13.63;;;7.78;;
74630;SDS011;63138;55.082;38.804;2023-03-23T16:28:26;8.38;;;6.80;;
74630;SDS011;63138;55.082;38.804;2023-03-23T16:30:52;12.30;;;8.20;;
74630;SDS011;63138;55.082;38.804;2023-03-23T16:33:21;12.13;;;7.55;;
74630;SDS011;63138;55.082;38.804;2023-03-23T16:35:47;11.07;;;7.38;;
74630;SDS011;63138;55.082;38.804;2023-03-23T16:38:15;8.70;;;6.95;;
74630;SDS011;63138;55.082;38.804;2023-03-23T16:40:42;10.83;;;7.50;;
74630;SDS011;63138;55.082;38.804;2023-03-23T16:43:09;7.78;;;4.88;;
74630;SDS011;63138;55.082;38.804;2023-03-23T16:45:38;8.73;;;6.18;;
74630;SDS011;63138;55.082;38.804;2023-03-23T16:48:05;6.50;;;5.32;;
74630;SDS011;63138;55.082;38.804;2023-03-23T16:50:32;10.75;;;5.13;;
74630;SDS011;63138;55.082;38.804;2023-03-23T16:53:00;9.70;;;7.07;;
74630;SDS011;63138;55.082;38.804;2023-03-23T16:55:31;9.30;;;6.18;;
74630;SDS011;63138;55.082;38.804;2023-03-23T16:57:58;9.18;;;6.53;;
74630;SDS011;63138;55.082;38.804;2023-03-23T17:00:24;11.57;;;6.57;;
74630;SDS011;63138;55.082;38.804;2023-03-23T17:02:52;9.25;;;6.45;;
74630;SDS011;63138;55.082;38.804;2023-03-23T17:05:23;10.63;;;7.67;;
74630;SDS011;63138;55.082;38.804;2023-03-23T17:07:52;11.35;;;6.65;;
74630;SDS011;63138;55.082;38.804;2023-03-23T17:10:22;9.07;;;6.45;;
74630;SDS011;63138;55.082;38.804;2023-03-23T17:12:49;8.75;;;6.13;;